sensor_id;sensor_type;location;lat;lon;timestamp;P1;durP1;ratioP1;P2;durP2;ratioP2
27895;SDS011;15241;48.374;10.876;2023-02-01T00:03:53;7.00;;;4.22;;
27895;SDS011;15241;48.374;10.876;2023-02-01T00:08:52;7.42;;;3.98;;
27895;SDS011;15241;48.374;10.876;2023-02-01T00:13:52;7.90;;;4.22;;
27895;SDS011;15241;48.374;10.876;2023-02-01T00:18:52;7.67;;;4.20;;
27895;SDS011;15241;48.374;10.876;2023-02-01T00:23:54;8.63;;;4.37;;
27895;SDS011;15241;48.374;10.876;2023-02-01T00:28:53;8.98;;;4.55;;
27895;SDS011;15241;48.374;10.876;2023-02-01T00:33:52;5.53;;;4.08;;
27895;SDS011;15241;48.374;10.876;2023-02-01T00:38:51;8.78;;;4.62;;
27895;SDS011;15241;48.374;10.876;2023-02-01T00:43:51;10.95;;;4.75;;
27895;SDS011;15241;48.374;10.876;2023-02-01T00:48:50;8.80;;;4.67;;
27895;SDS011;15241;48.374;10.876;2023-02-01T00:53:49;9.40;;;5.22;;
27895;SDS011;15241;48.374;10.876;2023-02-01T00:58:48;10.88;;;5.03;;
27895;SDS011;15241;48.374;10.876;2023-02-01T01:03:48;8.88;;;4.42;;
27895;SDS011;15241;48.374;10.876;2023-02-01T01:08:50;9.00;;;4.70;;
27895;SDS011;15241;48.374;10.876;2023-02-01T01:13:50;8.48;;;4.67;;
27895;SDS011;15241;48.374;10.876;2023-02-01T01:18:50;5.85;;;4.50;;
27895;SDS011;15241;48.374;10.876;2023-02-01T01:23:49;6.72;;;4.83;;
27895;SDS011;15241;48.374;10.876;2023-02-01T01:28:49;8.08;;;4.65;;
27895;SDS011;15241;48.374;10.876;2023-02-01T01:33:48;7.50;;;4.40;;
27895;SDS011;15241;48.374;10.876;2023-02-01T01:38:49;6.58;;;4.10;;
27895;SDS011;15241;48.374;10.876;2023-02-01T01:43:49;5.75;;;4.28;;
27895;SDS011;15241;48.374;10.876;2023-02-01T01:48:51;8.93;;;4.90;;
27895;SDS011;15241;48.374;10.876;2023-02-01T01:53:59;10.85;;;5.42;;
27895;SDS011;15241;48.374;10.876;2023-02-01T01:58:59;9.43;;;4.55;;
27895;SDS011;15241;48.374;10.876;2023-02-01T02:03:59;7.90;;;5.20;;
27895;SDS011;15241;48.374;10.876;2023-02-01T02:08:58;8.90;;;4.87;;
27895;SDS011;15241;48.374;10.876;2023-02-01T02:13:57;7.62;;;4.67;;
27895;SDS011;15241;48.374;10.876;2023-02-01T02:19:00;8.93;;;4.72;;
27895;SDS011;15241;48.374;10.876;2023-02-01T02:24:25;9.00;;;5.22;;
27895;SDS011;15241;48.374;10.876;2023-02-01T02:29:59;11.10;;;4.85;;
27895;SDS011;15241;48.374;10.876;2023-02-01T02:35:02;12.95;;;4.45;;
27895;SDS011;15241;48.374;10.876;2023-02-01T02:40:06;8.20;;;4.67;;
27895;SDS011;15241;48.374;10.876;2023-02-01T02:45:11;6.42;;;4.42;;
27895;SDS011;15241;48.374;10.876;2023-02-01T02:50:14;7.50;;;4.22;;
27895;SDS011;15241;48.374;10.876;2023-02-01T02:55:16;8.48;;;5.12;;
27895;SDS011;15241;48.374;10.876;2023-02-01T03:00:17;9.23;;;4.70;;
27895;SDS011;15241;48.374;10.876;2023-02-01T03:05:18;7.80;;;4.57;;
27895;SDS011;15241;48.374;10.876;2023-02-01T03:10:23;6.58;;;4.42;;
27895;SDS011;15241;48.374;10.876;2023-02-01T03:15:22;10.13;;;4.95;;
27895;SDS011;15241;48.374;10.876;2023-02-01T03:25:40;7.35;;;4.40;;
27895;SDS011;15241;48.374;10.876;2023-02-01T03:30:41;6.90;;;4.60;;
27895;SDS011;15241;48.374;10.876;2023-02-01T03:35:43;6.12;;;4.37;;
27895;SDS011;15241;48.374;10.876;2023-02-01T03:40:51;5.90;;;4.45;;
27895;SDS011;15241;48.374;10.876;2023-02-01T03:45:54;7.33;;;4.22;;
27895;SDS011;15241;48.374;10.876;2023-02-01T03:50:55;6.23;;;4.27;;
27895;SDS011;15241;48.374;10.876;2023-02-01T03:55:56;5.87;;;4.22;;
27895;SDS011;15241;48.374;10.876;2023-02-01T04:00:56;7.10;;;3.35;;
27895;SDS011;15241;48.374;10.876;2023-02-01T04:05:56;5.95;;;3.58;;
27895;SDS011;15241;48.374;10.876;2023-02-01T04:10:55;6.55;;;4.55;;
27895;SDS011;15241;48.374;10.876;2023-02-01T04:15:54;5.67;;;3.87;;
27895;SDS011;15241;48.374;10.876;2023-02-01T04:20:53;5.92;;;4.00;;
27895;SDS011;15241;48.374;10.876;2023-02-01T04:25:52;5.58;;;4.05;;
27895;SDS011;15241;48.374;10.876;2023-02-01T04:30:51;4.03;;;3.35;;
27895;SDS011;15241;48.374;10.876;2023-02-01T04:35:50;5.87;;;3.45;;
27895;SDS011;15241;48.374;10.876;2023-02-01T04:40:49;5.87;;;3.50;;
27895;SDS011;15241;48.374;10.876;2023-02-01T04:45:48;6.45;;;3.58;;
27895;SDS011;15241;48.374;10.876;2023-02-01T04:50:48;6.78;;;3.90;;
27895;SDS011;15241;48.374;10.876;2023-02-01T04:55:48;6.62;;;3.70;;
27895;SDS011;15241;48.374;10.876;2023-02-01T05:00:47;5.42;;;3.70;;
27895;SDS011;15241;48.374;10.876;2023-02-01T05:05:47;5.22;;;3.12;;
27895;SDS011;15241;48.374;10.876;2023-02-01T05:10:46;8.85;;;3.72;;
27895;SDS011;15241;48.374;10.876;2023-02-01T05:15:45;6.55;;;3.62;;
27895;SDS011;15241;48.374;10.876;2023-02-01T05:20:44;4.47;;;3.75;;
27895;SDS011;15241;48.374;10.876;2023-02-01T05:25:43;9.18;;;4.42;;
27895;SDS011;15241;48.374;10.876;2023-02-01T05:30:42;6.95;;;4.28;;
27895;SDS011;15241;48.374;10.876;2023-02-01T05:35:40;7.35;;;4.85;;
27895;SDS011;15241;48.374;10.876;2023-02-01T05:40:39;6.62;;;3.55;;
27895;SDS011;15241;48.374;10.876;2023-02-01T05:45:38;6.62;;;3.98;;
27895;SDS011;15241;48.374;10.876;2023-02-01T05:50:37;5.80;;;3.40;;
27895;SDS011;15241;48.374;10.876;2023-02-01T05:55:36;5.55;;;3.08;;
27895;SDS011;15241;48.374;10.876;2023-02-01T06:00:35;4.72;;;2.42;;
27895;SDS011;15241;48.374;10.876;2023-02-01T06:05:34;5.37;;;3.40;;
27895;SDS011;15241;48.374;10.876;2023-02-01T06:10:33;5.75;;;3.52;;
27895;SDS011;15241;48.374;10.876;2023-02-01T06:15:32;5.05;;;3.30;;
27895;SDS011;15241;48.374;10.876;2023-02-01T06:20:32;5.75;;;2.95;;
27895;SDS011;15241;48.374;10.876;2023-02-01T06:25:30;5.87;;;2.87;;
27895;SDS011;15241;48.374;10.876;2023-02-01T06:30:29;4.72;;;2.62;;
27895;SDS011;15241;48.374;10.876;2023-02-01T06:35:28;4.83;;;2.87;;
27895;SDS011;15241;48.374;10.876;2023-02-01T06:40:27;4.40;;;2.95;;
27895;SDS011;15241;48.374;10.876;2023-02-01T06:45:26;5.10;;;3.20;;
27895;SDS011;15241;48.374;10.876;2023-02-01T06:50:25;6.67;;;3.12;;
27895;SDS011;15241;48.374;10.876;2023-02-01T06:55:24;4.80;;;3.12;;
27895;SDS011;15241;48.374;10.876;2023-02-01T07:00:23;5.92;;;3.55;;
27895;SDS011;15241;48.374;10.876;2023-02-01T07:05:22;8.70;;;4.08;;
27895;SDS011;15241;48.374;10.876;2023-02-01T07:10:21;7.60;;;4.05;;
27895;SDS011;15241;48.374;10.876;2023-02-01T07:15:20;7.65;;;4.03;;
27895;SDS011;15241;48.374;10.876;2023-02-01T07:20:19;6.25;;;4.25;;
27895;SDS011;15241;48.374;10.876;2023-02-01T07:25:18;5.80;;;3.92;;
27895;SDS011;15241;48.374;10.876;2023-02-01T07:30:18;5.50;;;3.60;;
27895;SDS011;15241;48.374;10.876;2023-02-01T07:35:17;6.35;;;3.90;;
27895;SDS011;15241;48.374;10.876;2023-02-01T07:40:16;5.33;;;3.08;;
27895;SDS011;15241;48.374;10.876;2023-02-01T07:45:16;6.58;;;3.35;;
27895;SDS011;15241;48.374;10.876;2023-02-01T07:50:16;5.05;;;3.22;;
27895;SDS011;15241;48.374;10.876;2023-02-01T07:55:15;5.10;;;2.67;;
27895;SDS011;15241;48.374;10.876;2023-02-01T08:00:15;4.45;;;2.92;;
27895;SDS011;15241;48.374;10.876;2023-02-01T08:05:16;3.80;;;2.83;;
27895;SDS011;15241;48.374;10.876;2023-02-01T08:10:16;7.85;;;2.90;;
27895;SDS011;15241;48.374;10.876;2023-02-01T08:20:24;5.10;;;2.92;;
27895;SDS011;15241;48.374;10.876;2023-02-01T08:25:23;6.12;;;2.92;;
27895;SDS011;15241;48.374;10.876;2023-02-01T08:30:22;4.05;;;2.50;;
27895;SDS011;15241;48.374;10.876;2023-02-01T08:35:21;4.60;;;2.98;;
27895;SDS011;15241;48.374;10.876;2023-02-01T08:40:19;5.08;;;3.10;;
27895;SDS011;15241;48.374;10.876;2023-02-01T08:45:19;5.85;;;3.15;;
27895;SDS011;15241;48.374;10.876;2023-02-01T08:50:20;6.05;;;3.02;;
27895;SDS011;15241;48.374;10.876;2023-02-01T08:55:20;6.72;;;2.83;;
27895;SDS011;15241;48.374;10.876;2023-02-01T09:00:19;5.65;;;2.80;;
27895;SDS011;15241;48.374;10.876;2023-02-01T09:05:19;3.92;;;2.77;;
27895;SDS011;15241;48.374;10.876;2023-02-01T09:10:18;11.88;;;4.25;;
27895;SDS011;15241;48.374;10.876;2023-02-01T09:15:17;4.58;;;2.55;;
27895;SDS011;15241;48.374;10.876;2023-02-01T09:20:16;4.37;;;2.98;;
27895;SDS011;15241;48.374;10.876;2023-02-01T09:25:15;7.83;;;3.25;;
27895;SDS011;15241;48.374;10.876;2023-02-01T09:30:15;5.65;;;2.72;;
27895;SDS011;15241;48.374;10.876;2023-02-01T09:35:14;6.67;;;2.85;;
27895;SDS011;15241;48.374;10.876;2023-02-01T09:40:14;5.80;;;2.90;;
27895;SDS011;15241;48.374;10.876;2023-02-01T09:45:16;7.10;;;3.05;;
27895;SDS011;15241;48.374;10.876;2023-02-01T09:50:20;14.60;;;3.95;;
27895;SDS011;15241;48.374;10.876;2023-02-01T09:55:25;4.37;;;3.10;;
27895;SDS011;15241;48.374;10.876;2023-02-01T10:00:25;4.50;;;2.92;;
27895;SDS011;15241;48.374;10.876;2023-02-01T10:05:32;3.67;;;2.33;;
27895;SDS011;15241;48.374;10.876;2023-02-01T10:10:39;5.03;;;2.85;;
27895;SDS011;15241;48.374;10.876;2023-02-01T10:15:44;4.33;;;2.15;;
27895;SDS011;15241;48.374;10.876;2023-02-01T10:20:51;3.85;;;2.58;;
27895;SDS011;15241;48.374;10.876;2023-02-01T10:30:59;4.17;;;2.60;;
27895;SDS011;15241;48.374;10.876;2023-02-01T10:36:00;5.80;;;2.70;;
27895;SDS011;15241;48.374;10.876;2023-02-01T10:41:01;5.80;;;2.62;;
27895;SDS011;15241;48.374;10.876;2023-02-01T10:46:02;4.22;;;2.92;;
27895;SDS011;15241;48.374;10.876;2023-02-01T10:51:03;4.92;;;2.92;;
27895;SDS011;15241;48.374;10.876;2023-02-01T10:56:06;3.95;;;2.75;;
27895;SDS011;15241;48.374;10.876;2023-02-01T11:01:06;3.98;;;2.75;;
27895;SDS011;15241;48.374;10.876;2023-02-01T11:06:13;3.83;;;2.52;;
27895;SDS011;15241;48.374;10.876;2023-02-01T11:11:17;4.83;;;2.90;;
27895;SDS011;15241;48.374;10.876;2023-02-01T11:16:16;4.08;;;3.00;;
27895;SDS011;15241;48.374;10.876;2023-02-01T11:21:16;4.42;;;3.00;;
27895;SDS011;15241;48.374;10.876;2023-02-01T11:26:20;5.37;;;2.87;;
27895;SDS011;15241;48.374;10.876;2023-02-01T11:31:19;3.67;;;2.47;;
27895;SDS011;15241;48.374;10.876;2023-02-01T11:36:20;5.95;;;3.35;;
27895;SDS011;15241;48.374;10.876;2023-02-01T11:41:22;6.75;;;3.47;;
27895;SDS011;15241;48.374;10.876;2023-02-01T11:46:23;3.50;;;2.85;;
27895;SDS011;15241;48.374;10.876;2023-02-01T11:51:34;4.83;;;3.27;;
27895;SDS011;15241;48.374;10.876;2023-02-01T11:56:36;5.72;;;3.30;;
27895;SDS011;15241;48.374;10.876;2023-02-01T12:01:40;6.05;;;3.37;;
27895;SDS011;15241;48.374;10.876;2023-02-01T12:06:51;6.55;;;3.20;;
27895;SDS011;15241;48.374;10.876;2023-02-01T12:11:54;5.65;;;3.10;;
27895;SDS011;15241;48.374;10.876;2023-02-01T12:17:25;5.92;;;2.90;;
27895;SDS011;15241;48.374;10.876;2023-02-01T12:22:23;5.95;;;3.10;;
27895;SDS011;15241;48.374;10.876;2023-02-01T12:27:40;7.37;;;3.12;;
27895;SDS011;15241;48.374;10.876;2023-02-01T12:33:03;9.35;;;3.42;;
27895;SDS011;15241;48.374;10.876;2023-02-01T12:38:08;8.23;;;3.52;;
27895;SDS011;15241;48.374;10.876;2023-02-01T12:43:15;8.60;;;2.83;;
27895;SDS011;15241;48.374;10.876;2023-02-01T12:48:23;8.83;;;2.72;;
27895;SDS011;15241;48.374;10.876;2023-02-01T12:53:29;5.53;;;3.10;;
27895;SDS011;15241;48.374;10.876;2023-02-01T12:58:32;6.80;;;3.37;;
27895;SDS011;15241;48.374;10.876;2023-02-01T13:03:35;7.40;;;2.40;;
27895;SDS011;15241;48.374;10.876;2023-02-01T13:08:38;7.92;;;4.42;;
27895;SDS011;15241;48.374;10.876;2023-02-01T13:18:41;4.28;;;2.83;;
27895;SDS011;15241;48.374;10.876;2023-02-01T13:23:42;7.55;;;3.45;;
27895;SDS011;15241;48.374;10.876;2023-02-01T13:28:45;7.20;;;3.02;;
27895;SDS011;15241;48.374;10.876;2023-02-01T13:33:52;5.17;;;2.98;;
27895;SDS011;15241;48.374;10.876;2023-02-01T13:44:28;5.65;;;2.87;;
27895;SDS011;15241;48.374;10.876;2023-02-01T13:49:31;5.47;;;3.00;;
27895;SDS011;15241;48.374;10.876;2023-02-01T13:54:33;3.30;;;2.52;;
27895;SDS011;15241;48.374;10.876;2023-02-01T13:59:46;4.42;;;2.47;;
27895;SDS011;15241;48.374;10.876;2023-02-01T14:04:49;4.37;;;2.83;;
27895;SDS011;15241;48.374;10.876;2023-02-01T14:09:48;4.50;;;3.00;;
27895;SDS011;15241;48.374;10.876;2023-02-01T14:14:50;4.08;;;2.77;;
27895;SDS011;15241;48.374;10.876;2023-02-01T14:19:49;6.00;;;2.70;;
27895;SDS011;15241;48.374;10.876;2023-02-01T14:24:51;6.17;;;3.27;;
27895;SDS011;15241;48.374;10.876;2023-02-01T14:29:51;7.10;;;3.40;;
27895;SDS011;15241;48.374;10.876;2023-02-01T14:34:53;5.10;;;3.15;;
27895;SDS011;15241;48.374;10.876;2023-02-01T14:39:56;9.75;;;3.17;;
27895;SDS011;15241;48.374;10.876;2023-02-01T14:50:36;7.83;;;2.30;;
27895;SDS011;15241;48.374;10.876;2023-02-01T14:55:38;6.92;;;2.50;;
27895;SDS011;15241;48.374;10.876;2023-02-01T15:00:39;5.08;;;2.40;;
27895;SDS011;15241;48.374;10.876;2023-02-01T15:05:44;5.72;;;2.02;;
27895;SDS011;15241;48.374;10.876;2023-02-01T15:10:44;6.20;;;2.00;;
27895;SDS011;15241;48.374;10.876;2023-02-01T15:15:45;8.08;;;1.70;;
27895;SDS011;15241;48.374;10.876;2023-02-01T15:21:00;7.70;;;1.60;;
27895;SDS011;15241;48.374;10.876;2023-02-01T15:25:59;4.33;;;2.10;;
27895;SDS011;15241;48.374;10.876;2023-02-01T15:30:59;2.47;;;1.65;;
27895;SDS011;15241;48.374;10.876;2023-02-01T15:36:08;5.97;;;1.90;;
27895;SDS011;15241;48.374;10.876;2023-02-01T15:41:08;3.85;;;1.82;;
27895;SDS011;15241;48.374;10.876;2023-02-01T15:46:11;7.08;;;1.90;;
27895;SDS011;15241;48.374;10.876;2023-02-01T15:51:13;4.58;;;2.00;;
27895;SDS011;15241;48.374;10.876;2023-02-01T15:56:14;7.37;;;2.72;;
27895;SDS011;15241;48.374;10.876;2023-02-01T16:01:15;9.85;;;4.37;;
27895;SDS011;15241;48.374;10.876;2023-02-01T16:06:26;6.67;;;1.95;;
27895;SDS011;15241;48.374;10.876;2023-02-01T16:11:27;6.07;;;2.00;;
27895;SDS011;15241;48.374;10.876;2023-02-01T16:16:29;7.28;;;2.40;;
27895;SDS011;15241;48.374;10.876;2023-02-01T16:21:28;8.65;;;2.08;;
27895;SDS011;15241;48.374;10.876;2023-02-01T16:26:27;5.78;;;2.42;;
27895;SDS011;15241;48.374;10.876;2023-02-01T16:31:27;7.35;;;2.02;;
27895;SDS011;15241;48.374;10.876;2023-02-01T16:36:27;4.50;;;1.55;;
27895;SDS011;15241;48.374;10.876;2023-02-01T16:41:26;9.25;;;2.40;;
27895;SDS011;15241;48.374;10.876;2023-02-01T16:46:26;12.15;;;2.50;;
27895;SDS011;15241;48.374;10.876;2023-02-01T16:51:34;9.68;;;2.85;;
27895;SDS011;15241;48.374;10.876;2023-02-01T16:56:34;6.92;;;2.15;;
27895;SDS011;15241;48.374;10.876;2023-02-01T17:01:34;7.42;;;2.50;;
27895;SDS011;15241;48.374;10.876;2023-02-01T17:06:34;9.63;;;2.30;;
27895;SDS011;15241;48.374;10.876;2023-02-01T17:11:34;4.65;;;2.83;;
27895;SDS011;15241;48.374;10.876;2023-02-01T17:16:33;7.47;;;2.45;;
27895;SDS011;15241;48.374;10.876;2023-02-01T17:21:34;8.78;;;2.45;;
27895;SDS011;15241;48.374;10.876;2023-02-01T17:26:34;7.22;;;2.50;;
27895;SDS011;15241;48.374;10.876;2023-02-01T17:31:33;14.13;;;4.15;;
27895;SDS011;15241;48.374;10.876;2023-02-01T17:36:35;8.13;;;3.67;;
27895;SDS011;15241;48.374;10.876;2023-02-01T17:41:34;8.93;;;2.40;;
27895;SDS011;15241;48.374;10.876;2023-02-01T17:46:34;4.70;;;2.33;;
27895;SDS011;15241;48.374;10.876;2023-02-01T17:51:33;15.78;;;4.00;;
27895;SDS011;15241;48.374;10.876;2023-02-01T17:56:32;8.30;;;3.15;;
27895;SDS011;15241;48.374;10.876;2023-02-01T18:01:30;8.98;;;2.95;;
27895;SDS011;15241;48.374;10.876;2023-02-01T18:06:31;5.72;;;2.52;;
27895;SDS011;15241;48.374;10.876;2023-02-01T18:11:31;5.80;;;2.33;;
27895;SDS011;15241;48.374;10.876;2023-02-01T18:16:30;10.00;;;2.72;;
27895;SDS011;15241;48.374;10.876;2023-02-01T18:21:31;9.83;;;2.92;;
27895;SDS011;15241;48.374;10.876;2023-02-01T18:26:31;12.25;;;2.80;;
27895;SDS011;15241;48.374;10.876;2023-02-01T18:31:30;5.85;;;1.98;;
27895;SDS011;15241;48.374;10.876;2023-02-01T18:36:30;9.48;;;2.00;;
27895;SDS011;15241;48.374;10.876;2023-02-01T18:41:29;7.22;;;2.55;;
27895;SDS011;15241;48.374;10.876;2023-02-01T18:46:29;11.93;;;3.35;;
27895;SDS011;15241;48.374;10.876;2023-02-01T18:51:28;9.50;;;2.70;;
27895;SDS011;15241;48.374;10.876;2023-02-01T18:56:27;5.85;;;1.98;;
27895;SDS011;15241;48.374;10.876;2023-02-01T19:01:26;4.78;;;1.90;;
27895;SDS011;15241;48.374;10.876;2023-02-01T19:06:25;6.05;;;2.95;;
27895;SDS011;15241;48.374;10.876;2023-02-01T19:11:24;9.38;;;2.83;;
27895;SDS011;15241;48.374;10.876;2023-02-01T19:16:23;5.97;;;2.30;;
27895;SDS011;15241;48.374;10.876;2023-02-01T19:21:22;6.70;;;2.75;;
27895;SDS011;15241;48.374;10.876;2023-02-01T19:26:20;6.47;;;2.20;;
27895;SDS011;15241;48.374;10.876;2023-02-01T19:31:19;6.28;;;2.17;;
27895;SDS011;15241;48.374;10.876;2023-02-01T19:36:18;9.90;;;3.02;;
27895;SDS011;15241;48.374;10.876;2023-02-01T19:41:19;7.80;;;2.27;;
27895;SDS011;15241;48.374;10.876;2023-02-01T19:46:18;10.40;;;2.70;;
27895;SDS011;15241;48.374;10.876;2023-02-01T19:51:17;7.60;;;2.72;;
27895;SDS011;15241;48.374;10.876;2023-02-01T19:56:16;7.37;;;2.62;;
27895;SDS011;15241;48.374;10.876;2023-02-01T20:01:15;9.48;;;2.40;;
27895;SDS011;15241;48.374;10.876;2023-02-01T20:06:14;5.58;;;1.98;;
27895;SDS011;15241;48.374;10.876;2023-02-01T20:11:13;11.35;;;2.33;;
27895;SDS011;15241;48.374;10.876;2023-02-01T20:16:12;9.80;;;2.70;;
27895;SDS011;15241;48.374;10.876;2023-02-01T20:21:11;11.70;;;2.80;;
27895;SDS011;15241;48.374;10.876;2023-02-01T20:26:10;10.72;;;2.67;;
27895;SDS011;15241;48.374;10.876;2023-02-01T20:31:09;9.48;;;3.20;;
27895;SDS011;15241;48.374;10.876;2023-02-01T20:36:09;8.83;;;2.90;;
27895;SDS011;15241;48.374;10.876;2023-02-01T20:41:08;8.68;;;3.10;;
27895;SDS011;15241;48.374;10.876;2023-02-01T20:46:07;6.15;;;3.00;;
27895;SDS011;15241;48.374;10.876;2023-02-01T20:51:06;7.90;;;2.52;;
27895;SDS011;15241;48.374;10.876;2023-02-01T20:56:06;6.58;;;2.30;;
27895;SDS011;15241;48.374;10.876;2023-02-01T21:01:06;5.87;;;2.30;;
27895;SDS011;15241;48.374;10.876;2023-02-01T21:06:06;7.20;;;2.17;;
27895;SDS011;15241;48.374;10.876;2023-02-01T21:11:07;4.67;;;1.80;;
27895;SDS011;15241;48.374;10.876;2023-02-01T21:16:08;11.03;;;4.17;;
27895;SDS011;15241;48.374;10.876;2023-02-01T21:21:09;9.75;;;2.20;;
27895;SDS011;15241;48.374;10.876;2023-02-01T21:26:09;6.15;;;2.05;;
27895;SDS011;15241;48.374;10.876;2023-02-01T21:31:08;13.25;;;3.95;;
27895;SDS011;15241;48.374;10.876;2023-02-01T21:36:08;9.78;;;1.90;;
27895;SDS011;15241;48.374;10.876;2023-02-01T21:41:07;6.50;;;2.60;;
27895;SDS011;15241;48.374;10.876;2023-02-01T21:46:06;5.25;;;2.08;;
27895;SDS011;15241;48.374;10.876;2023-02-01T21:51:05;5.00;;;2.00;;
27895;SDS011;15241;48.374;10.876;2023-02-01T21:56:05;14.50;;;2.33;;
27895;SDS011;15241;48.374;10.876;2023-02-01T22:01:04;7.97;;;2.52;;
27895;SDS011;15241;48.374;10.876;2023-02-01T22:06:03;5.60;;;1.57;;
27895;SDS011;15241;48.374;10.876;2023-02-01T22:11:03;13.68;;;3.08;;
27895;SDS011;15241;48.374;10.876;2023-02-01T22:16:02;9.50;;;2.40;;
27895;SDS011;15241;48.374;10.876;2023-02-01T22:21:01;10.45;;;2.12;;
27895;SDS011;15241;48.374;10.876;2023-02-01T22:26:00;5.67;;;2.22;;
27895;SDS011;15241;48.374;10.876;2023-02-01T22:31:02;7.42;;;1.80;;
27895;SDS011;15241;48.374;10.876;2023-02-01T22:36:02;6.12;;;2.30;;
27895;SDS011;15241;48.374;10.876;2023-02-01T22:41:02;6.90;;;2.35;;
27895;SDS011;15241;48.374;10.876;2023-02-01T22:46:03;4.08;;;2.05;;
27895;SDS011;15241;48.374;10.876;2023-02-01T22:51:04;7.30;;;2.10;;
27895;SDS011;15241;48.374;10.876;2023-02-01T22:56:05;7.40;;;2.27;;
27895;SDS011;15241;48.374;10.876;2023-02-01T23:01:06;11.28;;;2.58;;
27895;SDS011;15241;48.374;10.876;2023-02-01T23:06:06;6.10;;;1.52;;
27895;SDS011;15241;48.374;10.876;2023-02-01T23:11:06;5.85;;;1.87;;
27895;SDS011;15241;48.374;10.876;2023-02-01T23:16:07;6.03;;;2.00;;
27895;SDS011;15241;48.374;10.876;2023-02-01T23:21:07;9.65;;;2.47;;
27895;SDS011;15241;48.374;10.876;2023-02-01T23:26:08;5.70;;;1.80;;
27895;SDS011;15241;48.374;10.876;2023-02-01T23:31:07;8.83;;;3.60;;
27895;SDS011;15241;48.374;10.876;2023-02-01T23:36:09;6.72;;;1.85;;
27895;SDS011;15241;48.374;10.876;2023-02-01T23:41:10;9.45;;;2.10;;
27895;SDS011;15241;48.374;10.876;2023-02-01T23:46:10;14.65;;;2.52;;
27895;SDS011;15241;48.374;10.876;2023-02-01T23:51:09;9.65;;;3.08;;
27895;SDS011;15241;48.374;10.876;2023-02-01T23:56:14;8.58;;;2.33;;
